Arkadelphia, Alabama
Current Conditions -  °F | °C
As of 5:55 AM on Sunday 23 Nov 2014 (Local Time) from KJFX Reporting Station
Overcast Overcast  
Wind Chill: 55°   Ceiling: 600
Heat Index: 55°   Visibility: 10mi
Dew Point: 55°   Wind: 5mph
Humidity: 100%   Direction: 120°ESE
Pressure: 29.88"   Gusts: NA
Location:  33.9511°N, 87.0046°W
Report Text: KJFX 231155Z AUTO 12004KT 10SM OVC006 13/13 A2988 RMK A02 P-128
Loading
Personal Weather Stations






























Interactive Weather Map New forecast layout! Learn more

10-Day Weather Forecast

Advertisements
Track Severe Weather on mobile